createdAt,value
2023-03-07T00:03:10.361Z,7.24
2023-03-07T00:07:12.341Z,7.38
2023-03-07T00:10:48.554Z,7.38
2023-03-07T00:15:14.662Z,7.37
2023-03-07T00:19:28.853Z,6.52
2023-03-07T00:23:44.566Z,6.71
2023-03-07T00:27:58.441Z,6.97
2023-03-07T00:32:05.674Z,6.91
2023-03-07T00:35:25.326Z,6.45
2023-03-07T00:39:25.523Z,6.21
2023-03-07T00:44:16.371Z,6.76
2023-03-07T00:57:13.719Z,6.59
2023-03-07T01:04:50.068Z,5.82
2023-03-07T01:08:31.457Z,6.13
2023-03-07T01:12:28.701Z,6.20
2023-03-07T01:16:29.327Z,6.24
2023-03-07T01:24:05.596Z,6.27
2023-03-07T01:27:15.353Z,6.30
2023-03-07T01:31:08.952Z,6.36
2023-03-07T01:35:08.783Z,6.19
2023-03-07T01:38:59.370Z,6.09
2023-03-07T01:43:27.839Z,6.29
2023-03-07T01:48:15.753Z,6.23
2023-03-07T01:55:45.976Z,5.77
2023-03-07T01:59:40.520Z,5.68
2023-03-07T02:03:17.625Z,5.44
2023-03-07T02:06:51.212Z,5.53
2023-03-07T02:10:37.373Z,5.35
2023-03-07T02:14:19.122Z,5.41
2023-03-07T02:18:43.658Z,5.69
2023-03-07T02:26:25.713Z,5.45
2023-03-07T02:33:42.811Z,5.48
2023-03-07T02:37:18.411Z,5.46
2023-03-07T02:41:37.988Z,5.26
2023-03-07T02:45:57.442Z,5.31
2023-03-07T02:50:25.446Z,5.04
2023-03-07T02:55:10.478Z,5.21
2023-03-07T02:59:29.453Z,4.82
2023-03-07T03:03:45.678Z,4.86
2023-03-07T03:07:33.107Z,4.86
2023-03-07T03:12:11.699Z,4.94
2023-03-07T03:16:09.766Z,4.92
2023-03-07T03:20:43.507Z,4.48
2023-03-07T03:24:30.025Z,4.86
2023-03-07T03:32:30.899Z,4.71
2023-03-07T03:35:56.674Z,4.61
2023-03-07T03:40:28.242Z,4.73
2023-03-07T03:45:05.706Z,4.74
2023-03-07T03:49:13.905Z,4.74
2023-03-07T03:53:13.417Z,4.90
2023-03-07T03:57:48.268Z,4.99
2023-03-07T04:01:49.832Z,4.83
2023-03-07T04:06:06.027Z,4.86
2023-03-07T04:09:48.061Z,4.93
2023-03-07T04:13:12.903Z,4.93
2023-03-07T04:17:04.032Z,5.06
2023-03-07T04:25:20.685Z,4.63
2023-03-07T04:34:05.847Z,4.60
2023-03-07T04:42:50.763Z,5.08
2023-03-07T04:47:08.583Z,4.83
2023-03-07T04:50:56.696Z,5.18
2023-03-07T04:54:00.754Z,5.09
2023-03-07T04:57:34.665Z,5.01
2023-03-07T05:01:18.586Z,4.90
2023-03-07T05:04:48.052Z,5.11
2023-03-07T05:08:50.394Z,5.21
2023-03-07T05:12:43.009Z,4.91
2023-03-07T05:17:03.430Z,5.21
2023-03-07T05:20:23.784Z,4.91
2023-03-07T05:28:06.925Z,5.38
2023-03-07T05:31:51.074Z,5.40
2023-03-07T05:35:09.917Z,5.51
2023-03-07T05:38:41.550Z,5.43
2023-03-07T05:42:24.685Z,5.39
2023-03-07T05:47:03.690Z,5.41
2023-03-07T05:50:40.344Z,5.46
2023-03-07T05:55:17.535Z,5.28
2023-03-07T05:59:50.230Z,5.58
2023-03-07T06:03:56.192Z,5.47
2023-03-07T06:08:07.221Z,5.81
2023-03-07T06:11:49.230Z,5.65
2023-03-07T06:15:40.365Z,5.57
2023-03-07T06:19:32.108Z,5.91
2023-03-07T06:23:13.616Z,6.03
2023-03-07T06:27:37.037Z,6.29
2023-03-07T06:31:20.652Z,6.36
2023-03-07T06:35:58.325Z,6.49
2023-03-07T06:39:44.396Z,6.67
2023-03-07T06:44:23.342Z,6.81
2023-03-07T06:48:41.199Z,6.73
2023-03-07T06:52:41.398Z,6.83
2023-03-07T06:56:34.892Z,7.17
2023-03-07T07:00:08.144Z,7.23
2023-03-07T07:03:16.161Z,7.32
2023-03-07T07:06:22.770Z,7.25
2023-03-07T07:09:26.992Z,7.68
2023-03-07T07:12:31.108Z,7.88
2023-03-07T07:15:36.480Z,8.05
2023-03-07T07:18:40.677Z,8.23
2023-03-07T07:21:47.221Z,8.53
2023-03-07T07:24:52.194Z,8.42
2023-03-07T07:27:56.425Z,8.54
2023-03-07T07:31:01.345Z,8.64
2023-03-07T07:34:09.117Z,8.54
2023-03-07T07:37:16.931Z,8.57
2023-03-07T07:40:21.888Z,8.69
2023-03-07T07:43:33.602Z,8.81
2023-03-07T07:46:50.718Z,8.83
2023-03-07T07:49:56.306Z,8.75
2023-03-07T08:02:35.922Z,9.30
2023-03-07T08:07:15.277Z,9.65
2023-03-07T08:15:02.763Z,10.12
2023-03-07T08:18:07.400Z,10.31
2023-03-07T08:21:16.914Z,10.60
2023-03-07T08:24:27.106Z,10.73
2023-03-07T08:28:07.753Z,10.80
2023-03-07T08:31:16.583Z,11.16
2023-03-07T08:34:26.817Z,11.97
2023-03-07T08:37:32.413Z,12.30
2023-03-07T08:40:39.213Z,12.30
2023-03-07T08:44:58.708Z,12.18
2023-03-07T08:48:11.897Z,12.08
2023-03-07T08:51:20.284Z,11.96
2023-03-07T08:54:25.426Z,11.85
2023-03-07T08:57:30.685Z,11.79
2023-03-07T09:00:34.825Z,11.67
2023-03-07T09:03:40.509Z,11.66
2023-03-07T09:06:45.218Z,11.51
2023-03-07T09:09:49.030Z,11.46
2023-03-07T09:12:53.534Z,11.53
2023-03-07T09:15:58.574Z,11.48
2023-03-07T09:19:08.851Z,11.58
2023-03-07T09:22:13.406Z,11.56
2023-03-07T09:25:18.541Z,11.59
2023-03-07T09:28:22.708Z,11.69
2023-03-07T09:31:27.164Z,11.67
2023-03-07T09:34:32.617Z,11.80
2023-03-07T09:37:36.517Z,11.74
2023-03-07T09:40:40.459Z,11.95
2023-03-07T09:43:51.223Z,12.08
2023-03-07T09:47:48.198Z,12.23
2023-03-07T09:50:58.455Z,12.34
2023-03-07T09:54:14.196Z,12.34
2023-03-07T09:57:25.677Z,12.27
2023-03-07T10:00:35.095Z,12.29
2023-03-07T10:03:48.462Z,12.34
2023-03-07T10:07:02.447Z,12.48
2023-03-07T10:10:12.628Z,12.56
2023-03-07T10:14:35.397Z,12.57
2023-03-07T10:18:04.351Z,12.54
2023-03-07T10:21:18.996Z,12.61
2023-03-07T10:24:52.401Z,12.63
2023-03-07T10:28:16.076Z,12.70
2023-03-07T10:31:26.072Z,12.80
2023-03-07T10:34:32.950Z,12.82
2023-03-07T10:37:49.771Z,12.88
2023-03-07T10:41:02.794Z,13.03
2023-03-07T10:44:12.187Z,13.07
2023-03-07T10:47:21.489Z,13.13
2023-03-07T10:50:34.824Z,13.03
2023-03-07T10:53:40.490Z,13.09
2023-03-07T10:57:12.866Z,13.09
2023-03-07T11:00:22.241Z,13.23
2023-03-07T11:03:46.091Z,13.24
2023-03-07T11:06:56.983Z,13.31
2023-03-07T11:10:02.635Z,13.41
2023-03-07T11:13:16.371Z,13.38
2023-03-07T11:16:23.905Z,13.43
2023-03-07T11:19:34.165Z,13.48
2023-03-07T11:22:39.001Z,13.57
2023-03-07T11:25:43.869Z,13.48
2023-03-07T11:28:49.941Z,13.59
2023-03-07T11:32:05.867Z,13.55
2023-03-07T11:35:19.829Z,13.61
2023-03-07T11:39:39.118Z,13.59
2023-03-07T11:42:48.545Z,13.68
2023-03-07T11:46:05.158Z,13.66
2023-03-07T11:50:23.199Z,13.71
2023-03-07T11:53:43.424Z,13.89
2023-03-07T11:56:53.329Z,13.97
2023-03-07T12:00:21.651Z,14.09
2023-03-07T12:03:52.633Z,14.16
2023-03-07T12:07:12.778Z,14.09
2023-03-07T12:10:32.220Z,14.10
2023-03-07T12:13:48.418Z,14.11
2023-03-07T12:17:04.445Z,14.13
2023-03-07T12:20:27.826Z,14.19
2023-03-07T12:23:39.255Z,14.25
2023-03-07T12:26:54.962Z,14.18
2023-03-07T12:30:18.407Z,14.21
2023-03-07T12:44:58.345Z,14.10
2023-03-07T12:48:30.634Z,14.00
2023-03-07T12:52:03.630Z,14.05
2023-03-07T12:55:38.695Z,14.00
2023-03-07T12:58:57.532Z,14.05
2023-03-07T13:06:52.945Z,14.24
2023-03-07T13:10:00.169Z,14.31
2023-03-07T13:13:04.266Z,14.31
2023-03-07T13:16:14.033Z,14.33
2023-03-07T13:19:54.151Z,14.39
2023-03-07T13:28:53.213Z,14.41
2023-03-07T13:32:00.586Z,14.44
2023-03-07T13:36:03.294Z,14.35
2023-03-07T13:39:39.369Z,14.15
2023-03-07T13:49:04.359Z,14.11
2023-03-07T13:52:46.597Z,14.15
2023-03-07T13:56:01.754Z,14.20
2023-03-07T13:59:24.996Z,14.25
2023-03-07T14:02:35.385Z,14.33
2023-03-07T14:05:42.603Z,14.37
2023-03-07T14:14:32.651Z,14.34
2023-03-07T14:17:57.274Z,14.36
2023-03-07T14:21:33.234Z,14.27
2023-03-07T14:25:08.038Z,14.27
2023-03-07T14:28:27.504Z,14.30
2023-03-07T14:31:39.033Z,14.31
2023-03-07T14:34:49.191Z,14.31
2023-03-07T14:37:55.406Z,14.29
2023-03-07T14:41:21.401Z,14.35
2023-03-07T14:44:59.304Z,14.32
2023-03-07T14:48:20.250Z,14.30
2023-03-07T14:51:45.371Z,14.34
2023-03-07T14:54:54.559Z,14.41
2023-03-07T14:58:25.880Z,14.47
2023-03-07T15:01:33.614Z,14.54
2023-03-07T15:09:13.318Z,14.61
2023-03-07T15:16:00.875Z,14.61
2023-03-07T15:19:17.313Z,14.60
2023-03-07T15:22:27.311Z,14.58
2023-03-07T15:25:38.974Z,14.60
2023-03-07T15:28:44.461Z,14.57
2023-03-07T15:31:54.905Z,14.54
2023-03-07T15:35:01.658Z,14.50
2023-03-07T15:38:14.969Z,14.47
2023-03-07T15:41:33.809Z,14.37
2023-03-07T15:44:38.279Z,14.32
2023-03-07T15:47:42.127Z,14.35
2023-03-07T15:50:53.060Z,14.31
2023-03-07T15:54:00.442Z,14.31
2023-03-07T15:57:08.949Z,14.29
2023-03-07T16:01:05.309Z,14.24
2023-03-07T16:04:32.557Z,14.17
2023-03-07T16:07:36.378Z,14.13
2023-03-07T16:10:48.055Z,14.12
2023-03-07T16:13:53.812Z,14.12
2023-03-07T16:17:00.627Z,14.00
2023-03-07T16:20:04.687Z,13.98
2023-03-07T16:23:14.188Z,13.92
2023-03-07T16:26:21.741Z,13.88
2023-03-07T16:29:29.372Z,13.85
2023-03-07T16:32:34.796Z,13.82
2023-03-07T16:35:42.225Z,13.78
2023-03-07T16:39:39.511Z,13.72
2023-03-07T16:42:45.677Z,13.67
2023-03-07T16:46:38.128Z,13.59
2023-03-07T16:49:42.322Z,13.56
2023-03-07T16:58:36.584Z,13.29
2023-03-07T17:02:01.524Z,13.20
2023-03-07T17:05:44.481Z,13.02
2023-03-07T17:08:53.013Z,12.86
2023-03-07T17:16:14.842Z,12.59
2023-03-07T17:19:31.829Z,12.40
2023-03-07T17:22:48.362Z,12.27
2023-03-07T17:26:08.346Z,12.30
2023-03-07T17:29:34.632Z,12.21
2023-03-07T17:33:02.881Z,12.21
2023-03-07T17:36:47.886Z,12.04
2023-03-07T17:39:58.675Z,11.94
2023-03-07T17:43:09.619Z,12.01
2023-03-07T17:46:39.860Z,11.78
2023-03-07T17:50:09.930Z,11.87
2023-03-07T17:53:56.624Z,11.87
2023-03-07T17:57:13.149Z,11.88
2023-03-07T18:00:24.720Z,11.86
2023-03-07T18:04:26.871Z,11.91
2023-03-07T18:07:55.131Z,11.66
2023-03-07T18:11:34.364Z,11.55
2023-03-07T18:15:13.451Z,11.46
2023-03-07T18:27:02.100Z,11.25
2023-03-07T18:30:19.009Z,11.16
2023-03-07T18:33:27.804Z,11.17
2023-03-07T18:36:35.577Z,11.11
2023-03-07T18:39:41.360Z,11.12
2023-03-07T18:43:26.094Z,11.00
2023-03-07T18:46:52.875Z,11.02
2023-03-07T18:51:51.122Z,10.90
2023-03-07T18:56:31.253Z,10.90
2023-03-07T18:59:59.279Z,10.88
2023-03-07T19:03:11.945Z,10.86
2023-03-07T19:06:24.976Z,10.91
2023-03-07T19:09:32.683Z,10.88
2023-03-07T19:12:36.949Z,10.94
2023-03-07T19:19:47.791Z,10.82
2023-03-07T19:22:58.912Z,10.62
2023-03-07T19:26:13.072Z,10.47
2023-03-07T19:29:19.207Z,10.48
2023-03-07T19:32:43.852Z,10.51
2023-03-07T19:35:49.637Z,10.39
2023-03-07T19:38:56.692Z,10.20
2023-03-07T19:42:00.326Z,10.11
2023-03-07T19:45:13.547Z,9.97
2023-03-07T19:48:36.772Z,9.49
2023-03-07T19:51:46.083Z,9.50
2023-03-07T19:54:54.223Z,9.35
2023-03-07T19:57:59.846Z,9.50
2023-03-07T20:01:14.106Z,9.59
2023-03-07T20:04:29.383Z,9.53
2023-03-07T20:07:35.528Z,9.42
2023-03-07T20:10:45.234Z,9.25
2023-03-07T20:13:51.260Z,9.22
2023-03-07T20:16:58.814Z,9.17
2023-03-07T20:20:08.402Z,9.21
2023-03-07T20:23:15.274Z,8.69
2023-03-07T20:26:42.493Z,8.62
2023-03-07T20:30:23.872Z,8.77
2023-03-07T20:33:32.475Z,8.39
2023-03-07T20:36:40.476Z,8.61
2023-03-07T20:39:45.743Z,8.39
2023-03-07T20:42:52.161Z,8.39
2023-03-07T20:45:58.416Z,8.20
2023-03-07T20:49:53.532Z,8.22
2023-03-07T20:53:16.933Z,7.98
2023-03-07T20:56:35.794Z,8.11
2023-03-07T20:59:39.689Z,7.98
2023-03-07T21:03:05.774Z,8.02
2023-03-07T21:06:34.996Z,7.71
2023-03-07T21:10:25.177Z,8.00
2023-03-07T21:13:35.358Z,7.98
2023-03-07T21:16:39.053Z,7.53
2023-03-07T21:19:44.762Z,7.67
2023-03-07T21:23:02.329Z,7.82
2023-03-07T21:31:32.965Z,7.84
2023-03-07T21:35:42.519Z,7.63
2023-03-07T21:39:20.245Z,7.68
2023-03-07T21:43:07.871Z,7.63
2023-03-07T21:47:35.061Z,7.60
2023-03-07T21:52:08.342Z,7.79
2023-03-07T22:00:23.439Z,7.65
2023-03-07T22:04:21.192Z,7.55
2023-03-07T22:07:53.100Z,7.72
2023-03-07T22:11:26.124Z,7.65
2023-03-07T22:15:13.088Z,7.50
2023-03-07T22:18:54.139Z,7.45
2023-03-07T22:23:06.686Z,7.15
2023-03-07T22:26:48.861Z,7.22
2023-03-07T22:31:49.754Z,7.19
2023-03-07T22:35:57.661Z,6.62
2023-03-07T22:40:03.852Z,6.94
2023-03-07T22:43:52.425Z,7.13
2023-03-07T22:47:47.211Z,6.92
2023-03-07T22:51:36.750Z,6.71
2023-03-07T22:55:22.942Z,6.90
2023-03-07T22:59:55.233Z,6.79
2023-03-07T23:03:50.255Z,6.76
2023-03-07T23:07:46.284Z,6.91
2023-03-07T23:21:25.136Z,6.36
2023-03-07T23:25:46.115Z,6.22
2023-03-07T23:30:05.214Z,6.30
2023-03-07T23:34:25.388Z,6.30
2023-03-07T23:38:56.014Z,6.18
2023-03-07T23:43:24.133Z,6.15
2023-03-07T23:47:23.479Z,5.73
2023-03-07T23:51:51.091Z,5.86
2023-03-07T23:55:52.530Z,5.59
